createdAt,value
2023-03-31T00:00:27.440Z,0.72
2023-03-31T00:01:27.502Z,1.04
2023-03-31T00:02:27.532Z,0.82
2023-03-31T00:03:27.602Z,1.01
2023-03-31T00:04:27.508Z,1.12
2023-03-31T00:05:27.495Z,0.89
2023-03-31T00:06:27.498Z,0.93
2023-03-31T00:07:27.514Z,0.90
2023-03-31T00:08:27.539Z,1.00
2023-03-31T00:09:27.551Z,1.10
2023-03-31T00:10:27.622Z,0.97
2023-03-31T00:11:27.631Z,0.84
2023-03-31T00:12:27.644Z,1.07
2023-03-31T00:13:27.652Z,0.88
2023-03-31T00:14:27.655Z,0.95
2023-03-31T00:15:27.675Z,0.98
2023-03-31T00:16:27.828Z,0.99
2023-03-31T00:17:27.885Z,0.99
2023-03-31T00:18:27.899Z,1.08
2023-03-31T00:19:27.881Z,1.07
2023-03-31T00:20:27.882Z,0.92
2023-03-31T00:21:27.893Z,1.11
2023-03-31T00:22:27.949Z,1.11
2023-03-31T00:23:27.949Z,0.97
2023-03-31T00:24:27.940Z,0.75
2023-03-31T00:25:27.965Z,1.39
2023-03-31T00:26:28.085Z,0.91
2023-03-31T00:27:27.993Z,0.74
2023-03-31T00:28:28.002Z,1.13
2023-03-31T00:29:28.071Z,0.98
2023-03-31T00:30:28.058Z,1.03
2023-03-31T00:31:28.093Z,0.97
2023-03-31T00:32:28.099Z,1.03
2023-03-31T00:33:28.138Z,0.95
2023-03-31T00:34:28.173Z,0.94
2023-03-31T00:35:28.160Z,0.77
2023-03-31T00:36:28.176Z,1.06
2023-03-31T00:37:28.194Z,1.06
2023-03-31T00:38:28.223Z,0.87
2023-03-31T00:39:28.316Z,1.03
2023-03-31T00:40:28.246Z,1.20
2023-03-31T00:41:28.267Z,0.84
2023-03-31T00:42:28.290Z,0.90
2023-03-31T00:43:28.306Z,1.06
2023-03-31T00:44:28.319Z,0.96
2023-03-31T00:45:28.394Z,1.07
2023-03-31T00:46:28.352Z,0.92
2023-03-31T00:47:28.363Z,0.75
2023-03-31T00:48:28.359Z,0.85
2023-03-31T00:49:28.392Z,0.89
2023-03-31T00:50:28.380Z,1.11
2023-03-31T00:51:28.404Z,1.05
2023-03-31T00:52:28.494Z,0.89
2023-03-31T00:53:28.550Z,0.92
2023-03-31T00:54:28.525Z,0.90
2023-03-31T00:55:28.538Z,1.13
2023-03-31T00:56:28.533Z,0.73
2023-03-31T00:57:28.805Z,0.82
2023-03-31T00:58:28.611Z,1.00
2023-03-31T00:59:28.615Z,0.87
2023-03-31T01:00:28.624Z,0.88
2023-03-31T01:01:28.657Z,0.83
2023-03-31T01:02:28.679Z,0.79
2023-03-31T01:03:28.747Z,0.97
2023-03-31T01:04:28.706Z,0.89
2023-03-31T01:05:28.733Z,0.86
2023-03-31T01:06:28.755Z,1.01
2023-03-31T01:07:28.769Z,1.06
2023-03-31T01:08:28.870Z,1.14
2023-03-31T01:09:28.834Z,1.09
2023-03-31T01:10:28.848Z,0.76
2023-03-31T01:11:28.833Z,0.72
2023-03-31T01:12:28.915Z,0.89
2023-03-31T01:13:28.977Z,0.98
2023-03-31T01:14:28.985Z,1.02
2023-03-31T01:15:29.009Z,0.91
2023-03-31T01:16:29.029Z,0.87
2023-03-31T01:17:29.128Z,0.87
2023-03-31T01:18:29.169Z,0.92
2023-03-31T01:19:29.119Z,0.94
2023-03-31T01:20:29.179Z,0.89
2023-03-31T01:21:29.126Z,0.86
2023-03-31T01:22:29.203Z,0.84
2023-03-31T01:23:29.198Z,0.80
2023-03-31T01:24:29.217Z,0.92
2023-03-31T01:25:29.221Z,0.77
2023-03-31T01:26:29.224Z,1.26
2023-03-31T01:27:29.246Z,0.90
2023-03-31T01:28:29.276Z,0.97
2023-03-31T01:29:29.284Z,0.84
2023-03-31T01:30:29.368Z,1.13
2023-03-31T01:31:29.339Z,0.81
2023-03-31T01:32:29.366Z,1.15
2023-03-31T01:33:29.344Z,0.97
2023-03-31T01:34:29.353Z,0.65
2023-03-31T01:35:29.408Z,0.93
2023-03-31T01:36:29.384Z,0.94
2023-03-31T01:37:29.377Z,0.68
2023-03-31T01:38:29.416Z,0.88
2023-03-31T01:39:29.481Z,0.71
2023-03-31T01:40:29.448Z,0.80
2023-03-31T01:41:29.454Z,1.06
2023-03-31T01:42:29.470Z,1.10
2023-03-31T01:43:29.533Z,0.70
2023-03-31T01:44:29.491Z,1.00
2023-03-31T01:45:29.501Z,0.83
2023-03-31T01:46:29.535Z,0.64
2023-03-31T01:47:29.583Z,0.85
2023-03-31T01:48:29.544Z,0.77
2023-03-31T01:49:29.552Z,0.82
2023-03-31T01:50:29.580Z,0.85
2023-03-31T01:51:29.631Z,0.94
2023-03-31T01:52:29.647Z,0.81
2023-03-31T01:53:29.623Z,0.70
2023-03-31T01:54:29.656Z,0.95
2023-03-31T01:55:29.691Z,0.96
2023-03-31T01:56:29.700Z,0.75
2023-03-31T01:57:29.777Z,0.80
2023-03-31T01:58:29.712Z,0.74
2023-03-31T01:59:29.736Z,0.86
2023-03-31T02:00:29.906Z,0.83
2023-03-31T02:01:31.044Z,0.76
2023-03-31T02:02:29.879Z,0.66
2023-03-31T02:03:29.870Z,0.70
2023-03-31T02:04:29.818Z,0.86
2023-03-31T02:05:29.830Z,0.96
2023-03-31T02:06:29.848Z,0.84
2023-03-31T02:07:29.887Z,0.69
2023-03-31T02:08:29.880Z,1.01
2023-03-31T02:09:29.920Z,0.82
2023-03-31T02:10:29.943Z,1.34
2023-03-31T02:11:29.939Z,0.69
2023-03-31T02:12:29.965Z,0.92
2023-03-31T02:13:29.977Z,0.81
2023-03-31T02:14:30.013Z,0.97
2023-03-31T02:15:30.134Z,0.92
2023-03-31T02:16:30.120Z,0.90
2023-03-31T02:17:30.146Z,0.91
2023-03-31T02:18:30.089Z,0.86
2023-03-31T02:19:30.124Z,0.86
2023-03-31T02:20:30.128Z,0.70
2023-03-31T02:21:30.161Z,0.96
2023-03-31T02:22:30.167Z,0.90
2023-03-31T02:23:30.197Z,0.90
2023-03-31T02:24:30.193Z,0.84
2023-03-31T02:25:30.230Z,0.71
2023-03-31T02:26:30.247Z,0.96
2023-03-31T02:27:30.266Z,0.93
2023-03-31T02:28:30.248Z,1.17
2023-03-31T02:29:30.302Z,0.81
2023-03-31T02:30:30.303Z,1.14
2023-03-31T02:31:31.137Z,0.73
2023-03-31T02:32:30.384Z,0.76
2023-03-31T02:33:30.354Z,0.93
2023-03-31T02:34:30.378Z,1.10
2023-03-31T02:35:30.434Z,0.84
2023-03-31T02:36:30.449Z,0.83
2023-03-31T02:37:30.469Z,1.15
2023-03-31T02:38:30.450Z,0.72
2023-03-31T02:39:30.456Z,0.97
2023-03-31T02:40:30.459Z,0.83
2023-03-31T02:41:30.523Z,0.97
2023-03-31T02:42:30.500Z,0.74
2023-03-31T02:43:30.530Z,0.99
2023-03-31T02:44:30.547Z,0.99
2023-03-31T02:45:30.617Z,0.98
2023-03-31T02:46:30.640Z,0.92
2023-03-31T02:47:30.665Z,0.71
2023-03-31T02:48:30.637Z,1.02
2023-03-31T02:49:30.661Z,1.01
2023-03-31T02:50:32.606Z,0.76
2023-03-31T02:51:30.689Z,0.86
2023-03-31T02:52:30.669Z,1.25
2023-03-31T02:53:30.667Z,0.92
2023-03-31T02:54:30.666Z,1.05
2023-03-31T02:55:30.690Z,1.09
2023-03-31T02:56:30.628Z,1.01
2023-03-31T02:57:30.659Z,0.85
2023-03-31T02:58:30.643Z,0.93
2023-03-31T02:59:30.622Z,0.84
2023-03-31T03:00:30.604Z,0.89
2023-03-31T03:01:30.707Z,0.89
2023-03-31T03:02:30.724Z,0.92
2023-03-31T03:03:30.659Z,1.09
2023-03-31T03:04:30.574Z,0.83
2023-03-31T03:05:30.597Z,0.87
2023-03-31T03:06:30.574Z,0.86
2023-03-31T03:07:30.570Z,0.56
2023-03-31T03:08:30.546Z,0.83
2023-03-31T03:09:30.568Z,0.89
2023-03-31T03:10:30.546Z,0.93
2023-03-31T03:11:30.543Z,0.65
2023-03-31T03:12:30.530Z,0.76
2023-03-31T03:13:30.517Z,0.98
2023-03-31T03:14:30.517Z,0.79
2023-03-31T03:15:30.508Z,0.76
2023-03-31T03:16:30.531Z,0.79
2023-03-31T03:17:30.524Z,0.83
2023-03-31T03:18:30.506Z,0.99
2023-03-31T03:19:30.510Z,0.96
2023-03-31T03:20:30.480Z,0.88
2023-03-31T03:21:30.473Z,1.01
2023-03-31T03:22:30.464Z,1.00
2023-03-31T03:23:30.465Z,0.98
2023-03-31T03:24:30.446Z,1.22
2023-03-31T03:25:30.433Z,1.32
2023-03-31T03:26:30.438Z,1.30
2023-03-31T03:27:30.424Z,1.18
2023-03-31T03:28:30.432Z,0.95
2023-03-31T03:29:30.414Z,1.07
2023-03-31T03:30:30.402Z,1.08
2023-03-31T03:31:30.378Z,1.11
2023-03-31T03:32:30.478Z,0.84
2023-03-31T03:33:30.403Z,0.72
2023-03-31T03:34:30.367Z,1.16
2023-03-31T03:35:30.350Z,1.04
2023-03-31T03:36:30.343Z,1.21
2023-03-31T03:37:30.348Z,0.86
2023-03-31T03:38:30.344Z,0.97
2023-03-31T03:39:30.332Z,0.81
2023-03-31T03:40:30.317Z,1.18
2023-03-31T03:41:30.315Z,0.72
2023-03-31T03:42:30.303Z,0.97
2023-03-31T03:43:30.295Z,1.19
2023-03-31T03:44:30.309Z,0.88
2023-03-31T03:45:30.309Z,1.01
2023-03-31T03:46:30.352Z,1.01
2023-03-31T03:47:30.296Z,1.06
2023-03-31T03:48:30.283Z,1.04
2023-03-31T03:49:30.283Z,1.11
2023-03-31T03:50:30.282Z,0.78
2023-03-31T03:51:30.283Z,1.00
2023-03-31T03:52:30.240Z,1.02
2023-03-31T03:53:30.243Z,0.97
2023-03-31T03:54:30.223Z,0.78
2023-03-31T03:55:30.217Z,0.67
2023-03-31T03:56:30.221Z,0.91
2023-03-31T03:57:30.242Z,0.84
2023-03-31T03:58:30.205Z,0.91
2023-03-31T03:59:30.226Z,0.79
2023-03-31T04:00:30.192Z,0.94
2023-03-31T04:01:30.171Z,1.05
2023-03-31T04:02:30.237Z,0.76
2023-03-31T04:03:30.202Z,1.17
2023-03-31T04:04:30.187Z,0.99
2023-03-31T04:05:30.175Z,1.23
2023-03-31T04:06:30.169Z,0.96
2023-03-31T04:07:30.156Z,0.82
2023-03-31T04:08:30.123Z,0.92
2023-03-31T04:09:30.117Z,0.84
2023-03-31T04:10:30.123Z,0.89
2023-03-31T04:11:30.132Z,0.95
2023-03-31T04:12:30.125Z,1.03
2023-03-31T04:13:30.108Z,0.85
2023-03-31T04:14:30.111Z,0.81
2023-03-31T04:15:30.105Z,1.06
2023-03-31T04:16:30.149Z,0.68
2023-03-31T04:17:30.107Z,0.92
2023-03-31T04:18:30.068Z,1.07
2023-03-31T04:19:30.071Z,1.02
2023-03-31T04:20:30.072Z,0.83
2023-03-31T04:21:30.052Z,1.12
2023-03-31T04:22:30.039Z,1.01
2023-03-31T04:23:30.039Z,1.02
2023-03-31T04:24:30.027Z,0.75
2023-03-31T04:25:30.028Z,1.03
2023-03-31T04:26:30.061Z,1.05
2023-03-31T04:27:30.063Z,1.08
2023-03-31T04:28:30.088Z,0.81
2023-03-31T04:29:30.105Z,0.90
2023-03-31T04:30:30.161Z,1.09
2023-03-31T04:31:30.163Z,1.29
2023-03-31T04:32:30.177Z,1.21
2023-03-31T04:33:30.178Z,1.00
2023-03-31T04:34:30.212Z,0.90
2023-03-31T04:35:30.258Z,1.27
2023-03-31T04:36:30.254Z,1.08
2023-03-31T04:37:30.307Z,1.30
2023-03-31T04:38:30.296Z,1.10
2023-03-31T04:39:30.312Z,1.27
2023-03-31T04:40:30.343Z,1.07
2023-03-31T04:41:30.360Z,1.26
2023-03-31T04:42:30.374Z,1.23
2023-03-31T04:43:30.396Z,0.94
2023-03-31T04:44:30.409Z,1.16
2023-03-31T04:45:30.507Z,1.25
2023-03-31T04:46:30.511Z,1.08
2023-03-31T04:47:30.493Z,1.27
2023-03-31T04:48:30.494Z,1.01
2023-03-31T04:49:30.549Z,1.15
2023-03-31T04:50:30.520Z,0.75
2023-03-31T04:51:30.580Z,0.95
2023-03-31T04:52:30.584Z,1.02
2023-03-31T04:53:30.636Z,1.13
2023-03-31T04:54:30.596Z,1.12
2023-03-31T04:55:30.660Z,1.33
2023-03-31T04:56:30.637Z,1.41
2023-03-31T04:57:30.744Z,0.89
2023-03-31T04:58:30.674Z,1.10
2023-03-31T04:59:30.714Z,1.22
2023-03-31T05:00:30.719Z,1.53
2023-03-31T05:01:30.837Z,1.15
2023-03-31T05:02:30.934Z,1.35
2023-03-31T05:03:31.049Z,0.96
2023-03-31T05:04:30.836Z,1.30
2023-03-31T05:05:30.877Z,1.20
2023-03-31T05:06:30.891Z,1.10
2023-03-31T05:07:30.908Z,1.28
2023-03-31T05:08:30.911Z,1.23
2023-03-31T05:09:30.925Z,1.02
2023-03-31T05:10:30.971Z,1.32
2023-03-31T05:11:30.988Z,1.21
2023-03-31T05:12:31.007Z,1.62
2023-03-31T05:13:31.002Z,1.58
2023-03-31T05:14:31.046Z,1.60
2023-03-31T05:15:31.277Z,1.32
2023-03-31T05:16:31.094Z,1.22
2023-03-31T05:17:31.091Z,1.72
2023-03-31T05:18:31.094Z,1.56
2023-03-31T05:19:31.092Z,1.78
2023-03-31T05:20:31.167Z,1.63
2023-03-31T05:21:31.212Z,1.57
2023-03-31T05:22:31.192Z,2.02
2023-03-31T05:23:31.200Z,1.83
2023-03-31T05:24:31.250Z,1.50
2023-03-31T05:25:31.251Z,1.61
2023-03-31T05:26:31.281Z,1.74
2023-03-31T05:27:31.282Z,1.74
2023-03-31T05:28:32.423Z,2.29
2023-03-31T05:29:31.333Z,1.99
2023-03-31T05:30:31.376Z,2.01
2023-03-31T05:31:31.395Z,2.07
2023-03-31T05:32:31.434Z,2.17
2023-03-31T05:33:31.426Z,1.88
2023-03-31T05:34:31.416Z,2.00
2023-03-31T05:35:31.540Z,2.46
2023-03-31T05:36:31.549Z,1.90
2023-03-31T05:37:31.633Z,1.91
2023-03-31T05:38:31.590Z,2.13
2023-03-31T05:39:31.512Z,2.51
2023-03-31T05:40:31.608Z,2.02
2023-03-31T05:41:31.606Z,2.18
2023-03-31T05:42:31.803Z,1.80
2023-03-31T05:43:31.755Z,2.23
2023-03-31T05:44:31.871Z,2.36
2023-03-31T05:45:31.871Z,2.16
2023-03-31T05:46:31.987Z,2.04
2023-03-31T05:47:32.035Z,2.14
2023-03-31T05:48:32.077Z,2.11
2023-03-31T05:49:32.119Z,1.66
2023-03-31T05:50:32.172Z,2.22
2023-03-31T05:51:32.234Z,1.87
2023-03-31T05:52:32.373Z,2.04
2023-03-31T05:53:32.375Z,1.72
2023-03-31T05:54:32.425Z,1.79
2023-03-31T05:55:33.723Z,1.98
2023-03-31T05:56:32.535Z,2.01
2023-03-31T05:57:32.644Z,2.23
2023-03-31T05:58:32.736Z,1.77
2023-03-31T05:59:32.766Z,2.22
2023-03-31T06:00:32.764Z,2.07
2023-03-31T06:01:32.990Z,1.93
2023-03-31T06:02:33.003Z,1.88
2023-03-31T06:03:32.991Z,2.02
2023-03-31T06:04:33.093Z,1.97
2023-03-31T06:05:33.094Z,2.17
2023-03-31T06:06:33.976Z,2.14
2023-03-31T06:07:33.149Z,1.71
2023-03-31T06:08:33.189Z,1.93
2023-03-31T06:09:33.246Z,1.91
2023-03-31T06:10:33.304Z,1.70
2023-03-31T06:11:34.236Z,2.33
2023-03-31T06:12:33.392Z,1.60
2023-03-31T06:13:33.757Z,2.05
2023-03-31T06:14:33.481Z,1.99
2023-03-31T06:15:33.543Z,2.27
2023-03-31T06:16:33.636Z,1.96
2023-03-31T06:17:33.656Z,1.74
2023-03-31T06:18:33.689Z,2.41
2023-03-31T06:19:33.683Z,2.00
2023-03-31T06:20:33.752Z,1.99
2023-03-31T06:21:33.813Z,1.79
2023-03-31T06:22:33.830Z,1.82
2023-03-31T06:23:33.856Z,1.73
2023-03-31T06:24:33.981Z,1.88
2023-03-31T06:25:47.765Z,1.72
2023-03-31T06:26:34.986Z,1.86
2023-03-31T06:27:33.957Z,1.95
2023-03-31T06:28:34.275Z,2.28
2023-03-31T06:29:33.914Z,2.14
2023-03-31T06:30:33.919Z,2.25
2023-03-31T06:31:33.932Z,2.32
2023-03-31T06:32:33.932Z,2.34
2023-03-31T06:33:34.320Z,2.17
2023-03-31T06:34:33.937Z,2.12
2023-03-31T06:35:33.903Z,2.39
2023-03-31T06:36:33.972Z,1.81
2023-03-31T06:37:33.857Z,1.88
2023-03-31T06:38:34.272Z,2.02
2023-03-31T06:39:34.745Z,2.60
2023-03-31T06:40:34.814Z,2.35
2023-03-31T06:41:33.873Z,2.67
2023-03-31T06:42:34.013Z,2.37
2023-03-31T06:43:33.944Z,2.47
2023-03-31T06:44:33.954Z,2.30
2023-03-31T06:45:33.954Z,2.70
2023-03-31T06:46:34.037Z,2.25
2023-03-31T06:47:34.018Z,1.80
2023-03-31T06:48:34.015Z,2.14
2023-03-31T06:49:34.086Z,2.57
2023-03-31T06:50:34.066Z,2.38
2023-03-31T06:51:34.141Z,2.14
2023-03-31T06:52:34.133Z,2.41
2023-03-31T06:53:34.285Z,2.16
2023-03-31T06:54:34.231Z,2.16
2023-03-31T06:55:34.156Z,1.88
2023-03-31T06:56:34.345Z,2.72
2023-03-31T06:57:34.256Z,2.50
2023-03-31T06:58:34.286Z,2.30
2023-03-31T06:59:34.275Z,2.09
2023-03-31T07:00:34.302Z,2.30
2023-03-31T07:01:34.391Z,2.34
2023-03-31T07:02:34.386Z,2.16
2023-03-31T07:03:34.839Z,1.77
2023-03-31T07:04:34.392Z,2.28
2023-03-31T07:05:34.393Z,2.15
2023-03-31T07:06:34.445Z,2.68
2023-03-31T07:07:34.437Z,2.12
2023-03-31T07:08:34.460Z,2.16
2023-03-31T07:09:34.757Z,2.26
2023-03-31T07:10:34.505Z,2.05
2023-03-31T07:11:34.554Z,2.29
2023-03-31T07:12:34.527Z,2.32
2023-03-31T07:13:34.561Z,2.59
2023-03-31T07:14:34.592Z,2.86
2023-03-31T07:15:34.574Z,2.64
2023-03-31T07:16:34.708Z,2.17
2023-03-31T07:17:34.652Z,2.76
2023-03-31T07:18:35.386Z,2.05
2023-03-31T07:19:34.649Z,2.29
2023-03-31T07:20:34.648Z,2.47
2023-03-31T07:21:34.684Z,2.08
2023-03-31T07:22:34.712Z,2.92
2023-03-31T07:23:34.758Z,2.25
2023-03-31T07:24:34.741Z,2.57
2023-03-31T07:25:34.754Z,2.45
2023-03-31T07:26:34.776Z,2.95
2023-03-31T07:27:34.827Z,2.98
2023-03-31T07:28:34.819Z,3.11
2023-03-31T07:29:34.913Z,3.28
2023-03-31T07:30:34.855Z,2.93
2023-03-31T07:31:34.924Z,2.55
2023-03-31T07:32:34.969Z,2.99
2023-03-31T07:33:35.284Z,2.84
2023-03-31T07:34:37.035Z,3.11
2023-03-31T07:35:35.011Z,2.95
2023-03-31T07:36:34.999Z,2.63
2023-03-31T07:37:34.952Z,3.04
2023-03-31T07:38:35.271Z,3.08
2023-03-31T07:39:34.941Z,2.49
2023-03-31T07:40:35.266Z,3.31
2023-03-31T07:41:34.899Z,3.58
2023-03-31T07:42:34.922Z,2.82
2023-03-31T07:43:34.890Z,3.01
2023-03-31T07:44:34.907Z,3.37
2023-03-31T07:45:35.104Z,2.83
2023-03-31T07:46:34.956Z,3.09
2023-03-31T07:47:34.869Z,3.08
2023-03-31T07:48:34.838Z,2.71
2023-03-31T07:49:34.848Z,2.85
2023-03-31T07:50:34.842Z,2.73
2023-03-31T07:51:34.835Z,2.92
2023-03-31T07:52:34.855Z,2.93
2023-03-31T07:53:34.841Z,2.65
2023-03-31T07:54:34.812Z,2.78
2023-03-31T07:55:34.805Z,2.30
2023-03-31T07:56:34.798Z,2.75
2023-03-31T07:57:34.799Z,2.55
2023-03-31T07:58:34.817Z,2.67
2023-03-31T07:59:34.789Z,2.59
2023-03-31T08:00:34.789Z,2.60
2023-03-31T08:01:34.814Z,2.62
2023-03-31T08:02:34.868Z,2.95
2023-03-31T08:03:34.855Z,2.67
2023-03-31T08:04:34.810Z,3.03
2023-03-31T08:05:34.716Z,2.77
2023-03-31T08:06:34.749Z,2.87
2023-03-31T08:07:34.715Z,2.28
2023-03-31T08:08:34.739Z,2.50
2023-03-31T08:09:34.765Z,2.73
2023-03-31T08:10:34.709Z,2.68
2023-03-31T08:11:34.672Z,2.25
2023-03-31T08:12:34.713Z,2.67
2023-03-31T08:13:34.654Z,2.35
2023-03-31T08:14:41.055Z,2.84
2023-03-31T08:15:35.672Z,2.40
2023-03-31T08:16:34.673Z,2.39
2023-03-31T08:17:34.657Z,2.59
2023-03-31T08:18:34.644Z,2.66
2023-03-31T08:19:34.631Z,2.45
2023-03-31T08:20:34.611Z,2.38
2023-03-31T08:21:34.813Z,2.45
2023-03-31T08:22:34.612Z,2.84
2023-03-31T08:23:34.581Z,2.64
2023-03-31T08:24:34.677Z,2.23
2023-03-31T08:25:34.583Z,2.17
2023-03-31T08:26:34.870Z,2.81
2023-03-31T08:27:34.612Z,2.11
2023-03-31T08:28:34.584Z,1.96
2023-03-31T08:29:34.568Z,2.59
2023-03-31T08:30:34.575Z,2.78
2023-03-31T08:31:34.567Z,2.47
2023-03-31T08:32:34.536Z,2.59
2023-03-31T08:33:34.512Z,3.22
2023-03-31T08:34:34.546Z,3.20
2023-03-31T08:35:34.531Z,2.37
2023-03-31T08:36:34.810Z,2.57
2023-03-31T08:37:34.495Z,3.93
2023-03-31T08:38:34.465Z,4.06
2023-03-31T08:39:34.473Z,3.99
2023-03-31T08:40:34.489Z,3.07
2023-03-31T08:41:34.849Z,3.06
2023-03-31T08:42:34.468Z,2.97
2023-03-31T08:43:34.484Z,3.29
2023-03-31T08:44:34.426Z,3.02
2023-03-31T08:45:34.449Z,2.79
2023-03-31T08:46:34.520Z,2.86
2023-03-31T08:47:34.418Z,3.07
2023-03-31T08:48:34.394Z,3.25
2023-03-31T08:49:34.415Z,3.10
2023-03-31T08:50:34.423Z,3.04
2023-03-31T08:51:34.453Z,3.30
2023-03-31T08:52:34.844Z,2.69
2023-03-31T08:53:34.372Z,3.03
2023-03-31T08:54:34.414Z,2.97
2023-03-31T08:55:34.377Z,2.69
2023-03-31T08:56:34.346Z,2.88
2023-03-31T08:57:34.402Z,2.71
2023-03-31T08:58:34.327Z,2.47
2023-03-31T08:59:34.797Z,2.43
2023-03-31T09:00:34.339Z,2.71
2023-03-31T09:01:47.694Z,2.53
2023-03-31T09:02:35.498Z,2.53
2023-03-31T09:03:34.419Z,2.73
2023-03-31T09:04:34.300Z,2.26
2023-03-31T09:05:34.299Z,2.24
2023-03-31T09:06:34.271Z,1.80
2023-03-31T09:07:34.254Z,2.32
2023-03-31T09:08:34.263Z,2.51
2023-03-31T09:09:34.313Z,2.39
2023-03-31T09:10:34.258Z,2.29
2023-03-31T09:11:34.259Z,2.26
2023-03-31T09:12:34.295Z,2.35
2023-03-31T09:13:34.213Z,2.40
2023-03-31T09:14:34.202Z,2.11
2023-03-31T09:15:34.211Z,1.85
2023-03-31T09:16:34.222Z,2.41
2023-03-31T09:17:34.235Z,1.97
2023-03-31T09:18:34.172Z,1.68
2023-03-31T09:19:34.192Z,2.25
2023-03-31T09:20:34.172Z,2.06
2023-03-31T09:21:34.181Z,2.12
2023-03-31T09:22:34.185Z,2.04
2023-03-31T09:23:34.221Z,2.27
2023-03-31T09:24:34.279Z,2.08
2023-03-31T09:25:34.819Z,2.16
2023-03-31T09:26:34.327Z,2.11
2023-03-31T09:27:34.330Z,2.11
2023-03-31T09:28:34.390Z,2.53
2023-03-31T09:29:34.449Z,2.72
2023-03-31T09:30:34.887Z,2.10
2023-03-31T09:31:34.555Z,2.61
2023-03-31T09:32:34.527Z,2.04
2023-03-31T09:33:34.594Z,2.63
2023-03-31T09:34:34.505Z,2.65
2023-03-31T09:35:34.537Z,2.16
2023-03-31T09:36:34.514Z,2.15
2023-03-31T09:37:34.566Z,2.58
2023-03-31T09:38:34.551Z,2.64
2023-03-31T09:39:34.578Z,2.70
2023-03-31T09:40:34.852Z,2.87
2023-03-31T09:41:34.614Z,2.26
2023-03-31T09:42:34.611Z,2.61
2023-03-31T09:43:34.619Z,2.54
2023-03-31T09:44:34.680Z,2.52
2023-03-31T09:45:34.721Z,2.66
2023-03-31T09:46:34.777Z,2.64
2023-03-31T09:47:34.780Z,2.44
2023-03-31T09:48:34.775Z,3.07
2023-03-31T09:49:34.839Z,2.37
2023-03-31T09:50:34.811Z,2.24
2023-03-31T09:51:34.906Z,2.48
2023-03-31T09:52:34.837Z,2.37
2023-03-31T09:53:34.855Z,2.17
2023-03-31T09:54:35.373Z,2.13
2023-03-31T09:55:39.917Z,2.41
2023-03-31T09:56:35.884Z,2.55
2023-03-31T09:57:35.066Z,2.00
2023-03-31T09:58:34.872Z,2.74
2023-03-31T09:59:34.893Z,2.09
2023-03-31T10:00:34.871Z,2.10
2023-03-31T10:01:34.880Z,2.44
2023-03-31T10:02:34.886Z,2.18
2023-03-31T10:03:34.888Z,1.97
2023-03-31T10:04:35.599Z,1.68
2023-03-31T10:05:34.810Z,2.14
2023-03-31T10:06:34.803Z,2.28
2023-03-31T10:07:34.803Z,1.77
2023-03-31T10:08:34.777Z,1.87
2023-03-31T10:09:34.820Z,2.15
2023-03-31T10:10:34.830Z,1.77
2023-03-31T10:11:34.761Z,1.89
2023-03-31T10:12:34.792Z,2.11
2023-03-31T10:13:34.752Z,1.66
2023-03-31T10:14:34.768Z,2.00
2023-03-31T10:15:34.808Z,2.03
2023-03-31T10:16:34.789Z,1.77
2023-03-31T10:17:47.046Z,2.09
2023-03-31T10:18:35.900Z,2.02
2023-03-31T10:19:34.805Z,2.36
2023-03-31T10:20:34.904Z,1.98
2023-03-31T10:21:34.805Z,2.03
2023-03-31T10:22:34.780Z,2.04
2023-03-31T10:23:34.781Z,1.90
2023-03-31T10:24:34.769Z,1.89
2023-03-31T10:25:34.766Z,2.00
2023-03-31T10:26:34.760Z,2.07
2023-03-31T10:27:34.744Z,2.03
2023-03-31T10:28:34.723Z,2.09
2023-03-31T10:29:34.725Z,1.73
2023-03-31T10:30:34.853Z,1.86
2023-03-31T10:31:34.759Z,1.83
2023-03-31T10:32:34.715Z,1.61
2023-03-31T10:33:34.888Z,1.42
2023-03-31T10:34:34.698Z,1.66
2023-03-31T10:35:34.698Z,1.81
2023-03-31T10:36:34.652Z,1.86
2023-03-31T10:37:34.671Z,2.21
2023-03-31T10:38:34.660Z,1.85
2023-03-31T10:39:34.651Z,1.53
2023-03-31T10:40:34.939Z,2.15
2023-03-31T10:41:34.666Z,1.77
2023-03-31T10:42:34.599Z,1.81
2023-03-31T10:43:34.632Z,1.63
2023-03-31T10:44:34.669Z,1.54
2023-03-31T10:45:37.967Z,2.00
2023-03-31T10:46:34.647Z,2.03
2023-03-31T10:47:34.599Z,1.61
2023-03-31T10:48:34.576Z,2.23
2023-03-31T10:49:34.562Z,1.53
2023-03-31T10:50:34.843Z,1.54
2023-03-31T10:51:34.552Z,1.96
2023-03-31T10:52:34.544Z,1.89
2023-03-31T10:53:34.596Z,1.05
2023-03-31T10:54:34.552Z,1.26
2023-03-31T10:55:34.865Z,1.75
2023-03-31T10:56:34.520Z,1.79
2023-03-31T10:57:34.577Z,1.89
2023-03-31T10:58:34.499Z,1.72
2023-03-31T10:59:34.532Z,1.64
2023-03-31T11:00:34.855Z,1.90
2023-03-31T11:01:34.542Z,1.63
2023-03-31T11:02:34.600Z,1.54
2023-03-31T11:03:34.547Z,1.95
2023-03-31T11:04:34.485Z,2.06
2023-03-31T11:05:34.836Z,1.57
2023-03-31T11:06:34.454Z,1.88
2023-03-31T11:07:34.451Z,1.69
2023-03-31T11:08:34.439Z,1.53
2023-03-31T11:09:34.515Z,1.78
2023-03-31T11:10:34.477Z,1.26
2023-03-31T11:11:34.422Z,1.61
2023-03-31T11:12:34.428Z,1.62
2023-03-31T11:13:34.433Z,1.36
2023-03-31T11:14:34.437Z,1.35
2023-03-31T11:15:34.440Z,1.42
2023-03-31T11:16:34.553Z,1.77
2023-03-31T11:17:34.461Z,1.68
2023-03-31T11:18:34.386Z,1.91
2023-03-31T11:19:34.375Z,1.70
2023-03-31T11:20:34.356Z,1.87
2023-03-31T11:21:34.388Z,1.82
2023-03-31T11:22:34.356Z,2.01
2023-03-31T11:23:34.324Z,1.76
2023-03-31T11:24:34.325Z,1.90
2023-03-31T11:25:34.300Z,1.41
2023-03-31T11:26:34.354Z,1.46
2023-03-31T11:27:34.286Z,1.70
2023-03-31T11:28:34.297Z,1.90
2023-03-31T11:29:34.315Z,1.93
2023-03-31T11:30:34.260Z,1.79
2023-03-31T11:31:34.299Z,1.67
2023-03-31T11:32:34.313Z,1.91
2023-03-31T11:33:34.244Z,1.95
2023-03-31T11:34:34.251Z,2.22
2023-03-31T11:35:34.300Z,1.89
2023-03-31T11:36:34.248Z,1.71
2023-03-31T11:37:34.217Z,1.82
2023-03-31T11:38:34.209Z,2.17
2023-03-31T11:39:34.201Z,1.65
2023-03-31T11:40:34.211Z,1.86
2023-03-31T11:41:34.218Z,1.72
2023-03-31T11:42:34.186Z,1.84
2023-03-31T11:43:34.177Z,2.18
2023-03-31T11:44:34.156Z,2.24
2023-03-31T11:45:34.153Z,2.15
2023-03-31T11:46:34.160Z,1.94
2023-03-31T11:47:34.162Z,1.67
2023-03-31T11:48:34.158Z,1.73
2023-03-31T11:49:34.126Z,1.82
2023-03-31T11:50:34.143Z,1.75
2023-03-31T11:51:34.122Z,1.72
2023-03-31T11:52:34.134Z,2.14
2023-03-31T11:53:34.097Z,1.79
2023-03-31T11:54:34.101Z,1.98
2023-03-31T11:55:34.106Z,1.70
2023-03-31T11:56:34.108Z,1.63
2023-03-31T11:57:34.125Z,1.73
2023-03-31T11:58:34.068Z,1.86
2023-03-31T11:59:34.072Z,1.70
2023-03-31T12:00:34.053Z,1.49
2023-03-31T12:01:34.383Z,1.61
2023-03-31T12:02:34.136Z,1.57
2023-03-31T12:03:34.124Z,1.41
2023-03-31T12:04:34.096Z,2.18
2023-03-31T12:05:34.125Z,1.63
2023-03-31T12:06:34.157Z,1.64
2023-03-31T12:07:34.120Z,1.29
2023-03-31T12:08:34.138Z,1.87
2023-03-31T12:09:34.157Z,1.46
2023-03-31T12:10:34.154Z,1.58
2023-03-31T12:11:34.196Z,1.37
2023-03-31T12:12:34.204Z,1.75
2023-03-31T12:13:34.194Z,1.53
2023-03-31T12:14:34.254Z,1.20
2023-03-31T12:15:34.249Z,1.37
2023-03-31T12:16:34.379Z,1.55
2023-03-31T12:17:34.315Z,1.75
2023-03-31T12:18:34.272Z,1.49
2023-03-31T12:19:34.301Z,1.36
2023-03-31T12:20:34.308Z,1.55
2023-03-31T12:21:34.345Z,1.66
2023-03-31T12:22:34.368Z,1.67
2023-03-31T12:23:34.415Z,1.77
2023-03-31T12:24:34.455Z,1.96
2023-03-31T12:25:34.404Z,1.56
2023-03-31T12:26:34.457Z,1.50
2023-03-31T12:27:34.453Z,1.43
2023-03-31T12:28:34.479Z,1.40
2023-03-31T12:29:34.498Z,1.57
2023-03-31T12:30:34.558Z,1.18
2023-03-31T12:31:34.649Z,1.39
2023-03-31T12:32:34.647Z,1.46
2023-03-31T12:33:34.605Z,1.28
2023-03-31T12:34:34.618Z,1.70
2023-03-31T12:35:34.703Z,1.46
2023-03-31T12:36:34.758Z,1.54
2023-03-31T12:37:34.736Z,1.35
2023-03-31T12:38:34.713Z,1.28
2023-03-31T12:39:34.755Z,1.39
2023-03-31T12:40:34.819Z,1.52
2023-03-31T12:41:34.799Z,1.65
2023-03-31T12:42:34.843Z,1.28
2023-03-31T12:43:34.849Z,1.15
2023-03-31T12:44:34.878Z,1.42
2023-03-31T12:45:34.905Z,1.23
2023-03-31T12:46:35.002Z,1.12
2023-03-31T12:47:34.985Z,1.31
2023-03-31T12:48:34.986Z,1.45
2023-03-31T12:49:34.988Z,1.11
2023-03-31T12:50:35.039Z,1.44
2023-03-31T12:51:35.057Z,0.95
2023-03-31T12:52:35.099Z,1.38
2023-03-31T12:53:35.149Z,1.09
2023-03-31T12:54:35.135Z,1.09
2023-03-31T12:55:35.196Z,1.23
2023-03-31T12:56:35.214Z,1.37
2023-03-31T12:57:35.264Z,1.01
2023-03-31T12:58:35.300Z,1.15
2023-03-31T12:59:35.291Z,0.94
2023-03-31T13:00:35.349Z,0.99
2023-03-31T13:01:35.411Z,0.93
2023-03-31T13:02:35.463Z,1.00
2023-03-31T13:03:35.461Z,1.05
2023-03-31T13:04:35.472Z,1.02
2023-03-31T13:05:35.485Z,1.14
2023-03-31T13:06:35.528Z,0.96
2023-03-31T13:07:35.575Z,1.41
2023-03-31T13:08:35.613Z,1.18
2023-03-31T13:09:35.675Z,1.25
2023-03-31T13:10:35.718Z,0.84
2023-03-31T13:11:35.710Z,1.06
2023-03-31T13:12:35.763Z,0.94
2023-03-31T13:13:35.764Z,1.00
2023-03-31T13:14:35.801Z,0.89
2023-03-31T13:15:35.834Z,0.89
2023-03-31T13:16:36.007Z,1.10
2023-03-31T13:17:36.072Z,1.08
2023-03-31T13:18:35.978Z,1.00